Time;durP1;ratioP1;P1;durP2;ratioP2;P2;SDS_P1;SDS_P2;PMS_P1;PMS_P2;Temp;Humidity;BMP_temperature;BMP_pressure;BME280_temperature;BME280_humidity;BME280_pressure;Samples;Min_cycle;Max_cycle;Signal;HPM_P1;HPM_P2
2021/03/06 00:00:39;;;;;;;24.42;19.15;;;230.80;1740.80;;;;;;5023958;28;20032;-71
2021/03/06 00:03:05;;;;;;;18.25;15.52;;;230.70;1740.80;;;;;;5032742;28;20033;-72
2021/03/06 00:05:31;;;;;;;20.67;16.42;;;230.50;1766.40;;;;;;5021373;28;20037;-71
2021/03/06 00:07:57;;;;;;;36.05;23.77;;;230.70;1740.80;;;;;;5011442;28;20132;-71
2021/03/06 00:10:23;;;;;;;19.98;15.63;;;230.60;1740.80;;;;;;5028552;28;20033;-79
2021/03/06 00:12:50;;;;;;;20.55;16.40;;;230.40;1740.80;;;;;;5020317;28;20496;-71
2021/03/06 00:15:21;;;;;;;20.48;18.23;;;205.70;1740.80;;;;;;5021480;28;20081;-71
2021/03/06 00:17:47;;;;;;;27.13;22.50;;;205.50;1766.40;;;;;;5016835;28;20054;-70
2021/03/06 00:20:13;;;;;;;23.77;16.75;;;205.70;1740.80;;;;;;5033378;28;20061;-71
2021/03/06 00:22:39;;;;;;;40.40;35.30;;;205.40;1740.80;;;;;;5034671;28;20033;-71
2021/03/06 00:25:08;;;;;;;30.67;25.85;;;205.40;1766.40;;;;;;5034720;28;20395;-74
2021/03/06 00:27:34;;;;;;;25.02;20.33;;;205.50;2252.80;;;;;;5034396;28;20117;-70
2021/03/06 00:29:59;;;;;;;36.55;28.38;;;205.30;1766.40;;;;;;5034832;28;20137;-75
2021/03/06 00:32:25;;;;;;;26.58;21.48;;;205.40;1766.40;;;;;;5034085;28;20502;-71
2021/03/06 00:34:50;;;;;;;29.23;21.20;;;205.50;1766.40;;;;;;5034461;28;20380;-70
2021/03/06 00:37:16;;;;;;;28.08;20.88;;;205.20;1792.00;;;;;;5034293;28;20030;-70
2021/03/06 00:39:42;;;;;;;30.27;21.15;;;205.40;1792.00;;;;;;5034532;28;20022;-74
2021/03/06 00:42:07;;;;;;;31.77;23.15;;;205.40;1766.40;;;;;;5034422;28;20036;-71
2021/03/06 00:44:33;;;;;;;43.53;29.63;;;205.30;1766.40;;;;;;5030907;28;20074;-74
2021/03/06 00:46:59;;;;;;;39.80;28.20;;;205.20;1792.00;;;;;;5034037;28;20033;-74
2021/03/06 00:49:25;;;;;;;44.65;30.98;;;205.20;1817.60;;;;;;5034006;28;20093;-71
2021/03/06 00:51:50;;;;;;;35.22;26.15;;;205.10;1817.60;;;;;;5034238;28;20475;-75
2021/03/06 00:54:16;;;;;;;35.60;26.25;;;205.40;1766.40;;;;;;5034029;28;20025;-73
2021/03/06 00:56:42;;;;;;;33.78;24.25;;;205.40;1766.40;;;;;;5034124;28;20022;-71
2021/03/06 00:59:08;;;;;;;33.13;23.75;;;205.40;1766.40;;;;;;5033954;28;20079;-71
2021/03/06 01:01:34;;;;;;;31.45;21.77;;;205.30;1792.00;;;;;;5033716;28;20025;-71
2021/03/06 01:03:59;;;;;;;30.25;20.73;;;205.30;1766.40;;;;;;5034000;28;20032;-72
2021/03/06 01:06:25;;;;;;;32.00;27.05;;;205.30;1766.40;;;;;;5033840;28;20468;-73
2021/03/06 01:08:51;;;;;;;79.55;56.38;;;205.30;1766.40;;;;;;5028777;28;20041;-73
2021/03/06 01:11:17;;;;;;;46.85;35.80;;;205.40;1766.40;;;;;;5034025;28;20456;-71
2021/03/06 01:13:43;;;;;;;41.60;31.67;;;205.10;1792.00;;;;;;5033640;28;20038;-72
2021/03/06 01:16:09;;;;;;;52.72;42.47;;;205.20;1817.60;;;;;;5033845;28;20067;-73
2021/03/06 01:18:34;;;;;;;40.22;33.97;;;205.20;1817.60;;;;;;5033496;28;20017;-71
2021/03/06 01:21:00;;;;;;;40.80;34.22;;;205.20;1792.00;;;;;;5033772;28;20025;-71
2021/03/06 01:23:26;;;;;;;28.70;25.45;;;205.20;1792.00;;;;;;5033514;28;20422;-71
2021/03/06 01:25:52;;;;;;;26.70;23.77;;;205.10;1843.20;;;;;;5033592;28;20061;-72
2021/03/06 01:28:17;;;;;;;31.88;28.67;;;205.00;1843.20;;;;;;5033459;28;20037;-71
2021/03/06 01:30:43;;;;;;;25.27;20.42;;;205.10;1817.60;;;;;;5033505;28;20480;-71
2021/03/06 01:33:09;;;;;;;19.83;17.63;;;205.10;1817.60;;;;;;5032916;28;20053;-69
2021/03/06 01:35:35;;;;;;;20.05;16.50;;;204.90;1843.20;;;;;;5033407;28;20439;-69
2021/03/06 01:38:02;;;;;;;19.33;15.32;;;180.10;1843.20;;;;;;5033048;28;20021;-69
2021/03/06 01:40:30;;;;;;;18.70;14.90;;;204.80;1843.20;;;;;;5033388;28;20056;-69
2021/03/06 01:42:57;;;;;;;19.95;16.73;;;180.10;1868.80;;;;;;5033067;28;20044;-69
2021/03/06 01:45:23;;;;;;;17.33;12.98;;;180.00;1894.40;;;;;;5033214;28;20022;-74
2021/03/06 01:47:49;;;;;;;15.10;12.82;;;180.10;1843.20;;;;;;5032929;28;20115;-77
2021/03/06 01:50:28;;;;;;;15.43;12.73;;;180.00;1843.20;;;;;;5033134;28;20022;-76
2021/03/06 01:52:54;;;;;;;16.27;12.50;;;180.10;1868.80;;;;;;5015024;28;20021;-72
2021/03/06 01:55:23;;;;;;;16.65;11.93;;;204.80;1843.20;;;;;;5033117;28;20429;-76
2021/03/06 01:57:50;;;;;;;16.90;12.35;;;204.90;1843.20;;;;;;5032870;28;20076;-69
2021/03/06 02:00:17;;;;;;;15.77;12.93;;;204.90;1843.20;;;;;;5032788;28;20018;-72
2021/03/06 02:02:43;;;;;;;18.40;13.77;;;204.80;1843.20;;;;;;5032452;28;20546;-69
2021/03/06 02:05:09;;;;;;;16.85;12.60;;;204.90;1843.20;;;;;;5032798;28;20049;-76
2021/03/06 02:07:35;;;;;;;17.67;12.90;;;204.90;1843.20;;;;;;5032342;28;20438;-72
2021/03/06 02:10:03;;;;;;;17.58;13.55;;;205.20;1817.60;;;;;;5032529;28;20036;-71
2021/03/06 02:12:48;;;;;;;16.75;12.95;;;205.20;1792.00;;;;;;5032569;28;20086;-69
2021/03/06 02:15:41;;;;;;;19.15;14.02;;;205.20;1766.40;;;;;;5032231;28;20021;-75
2021/03/06 02:18:13;;;;;;;17.90;13.68;;;204.90;1792.00;;;;;;5032411;28;20379;-73
2021/03/06 02:20:45;;;;;;;15.13;12.90;;;205.00;1792.00;;;;;;5031672;28;20076;-72
2021/03/06 02:23:23;;;;;;;15.63;12.73;;;204.90;1792.00;;;;;;5032260;28;20029;-71
2021/03/06 02:26:13;;;;;;;14.48;11.50;;;205.00;1792.00;;;;;;5032362;28;20071;-71
2021/03/06 02:29:01;;;;;;;16.40;12.85;;;204.90;1792.00;;;;;;5032332;28;20071;-70
2021/03/06 02:31:31;;;;;;;18.10;13.52;;;204.90;1817.60;;;;;;5032427;28;20025;-71
2021/03/06 02:34:05;;;;;;;16.50;14.07;;;204.80;1817.60;;;;;;5031915;28;20044;-71
2021/03/06 02:36:35;;;;;;;16.83;14.15;;;204.80;1817.60;;;;;;5032394;28;20559;-71
2021/03/06 02:39:04;;;;;;;17.38;13.27;;;204.90;1817.60;;;;;;5031883;28;20029;-71
2021/03/06 02:41:32;;;;;;;17.70;13.70;;;179.90;1843.20;;;;;;5014169;28;20502;-71
2021/03/06 02:44:00;;;;;;;17.90;13.85;;;179.90;1868.80;;;;;;5032440;28;20037;-70
2021/03/06 02:46:26;;;;;;;17.20;13.80;;;180.00;1868.80;;;;;;5018790;28;20389;-71
2021/03/06 02:48:54;;;;;;;17.83;14.82;;;180.00;1843.20;;;;;;5031995;28;20030;-70
2021/03/06 02:51:21;;;;;;;23.02;15.93;;;180.00;1868.80;;;;;;5031885;28;20048;-71
2021/03/06 02:53:48;;;;;;;24.17;16.50;;;179.90;1868.80;;;;;;5032418;28;20025;-71
2021/03/06 02:56:14;;;;;;;18.88;15.63;;;180.00;1868.80;;;;;;5031983;28;20495;-71
2021/03/06 02:58:46;;;;;;;33.10;20.98;;;180.10;1868.80;;;;;;5032250;28;20029;-71
2021/03/06 03:01:21;;;;;;;23.73;18.30;;;180.10;1868.80;;;;;;5031825;28;20113;-71
2021/03/06 03:04:25;;;;;;;23.60;16.73;;;204.80;1817.60;;;;;;5032231;28;20440;-70
2021/03/06 03:06:57;;;;;;;26.92;19.05;;;205.10;1792.00;;;;;;5031304;28;20044;-70
2021/03/06 03:09:29;;;;;;;23.33;18.48;;;204.90;1792.00;;;;;;5031765;28;20033;-70
2021/03/06 03:12:06;;;;;;;25.10;18.58;;;205.00;1792.00;;;;;;5031831;28;20068;-74
2021/03/06 03:14:34;;;;;;;21.92;17.63;;;204.80;1792.00;;;;;;5031708;28;20482;-70
2021/03/06 03:17:07;;;;;;;23.25;18.95;;;205.00;1766.40;;;;;;5018235;28;20184;-70
2021/03/06 03:19:46;;;;;;;20.77;17.65;;;204.80;1792.00;;;;;;5031749;28;20029;-71
2021/03/06 03:22:15;;;;;;;22.33;18.83;;;204.80;1792.00;;;;;;5018822;28;20029;-72
2021/03/06 03:24:43;;;;;;;24.73;19.83;;;205.00;1792.00;;;;;;5031813;28;20087;-70
2021/03/06 03:27:11;;;;;;;24.42;18.95;;;204.80;1792.00;;;;;;5031634;28;20018;-70
2021/03/06 03:29:40;;;;;;;24.35;18.77;;;204.80;1792.00;;;;;;5031922;28;20029;-70
2021/03/06 03:32:09;;;;;;;27.55;20.00;;;204.90;1766.40;;;;;;5032476;28;20033;-71
2021/03/06 03:34:36;;;;;;;24.17;20.05;;;204.80;1792.00;;;;;;5035667;28;20075;-70
2021/03/06 03:37:03;;;;;;;27.75;20.48;;;180.10;1817.60;;;;;;5035821;28;20412;-71
2021/03/06 03:39:29;;;;;;;25.02;20.42;;;204.80;1792.00;;;;;;5035261;28;20421;-70
2021/03/06 03:41:56;;;;;;;25.15;20.58;;;179.70;1843.20;;;;;;5035432;28;20033;-70
2021/03/06 03:44:22;;;;;;;23.02;19.80;;;180.00;1843.20;;;;;;5035147;28;20555;-70
2021/03/06 03:46:48;;;;;;;23.30;19.40;;;180.00;1817.60;;;;;;5035561;28;20025;-70
2021/03/06 03:49:19;;;;;;;25.92;19.30;;;179.90;1843.20;;;;;;5035050;28;20439;-71
2021/03/06 03:51:45;;;;;;;24.15;19.30;;;179.90;1817.60;;;;;;5035596;28;20037;-70
2021/03/06 03:54:13;;;;;;;27.55;21.00;;;179.90;1843.20;;;;;;5035076;28;20515;-72
2021/03/06 03:56:39;;;;;;;27.27;20.42;;;179.90;1843.20;;;;;;5035416;28;20037;-71
2021/03/06 03:59:06;;;;;;;24.20;19.08;;;180.00;1817.60;;;;;;5035208;28;20030;-71
2021/03/06 04:01:58;;;;;;;23.67;19.65;;;179.90;1817.60;;;;;;5034826;28;20033;-71
2021/03/06 04:04:28;;;;;;;;;;;179.70;1868.80;;;;;;5025871;28;20442;-71
2021/03/06 04:06:58;;;;;;;25.52;19.60;;;179.70;1894.40;;;;;;5017308;28;19904;-71
2021/03/06 04:09:24;;;;;;;40.33;26.55;;;179.80;1868.80;;;;;;5028226;28;20029;-71
2021/03/06 04:11:51;;;;;;;54.50;27.80;;;179.70;1843.20;;;;;;5034935;28;20021;-71
2021/03/06 04:14:17;;;;;;;24.98;18.75;;;179.60;1868.80;;;;;;5034548;28;20388;-70
2021/03/06 04:16:44;;;;;;;22.40;18.02;;;179.70;1868.80;;;;;;5035018;28;20071;-71
2021/03/06 04:19:10;;;;;;;23.50;19.65;;;179.70;1868.80;;;;;;5034578;28;20025;-71
2021/03/06 04:21:36;;;;;;;25.40;19.17;;;179.80;1843.20;;;;;;5034685;28;20022;-71
2021/03/06 04:24:01;;;;;;;24.55;18.50;;;179.90;1817.60;;;;;;5034638;28;20460;-76
2021/03/06 04:26:27;;;;;;;24.30;19.27;;;180.10;2252.80;;;;;;5034732;28;20392;-69
2021/03/06 04:28:53;;;;;;;23.95;19.10;;;180.00;1792.00;;;;;;5034660;28;20095;-70
2021/03/06 04:31:19;;;;;;;22.25;18.25;;;179.70;1817.60;;;;;;5034425;28;20028;-69
2021/03/06 04:33:44;;;;;;;21.83;17.45;;;180.00;1766.40;;;;;;5020288;28;20047;-77
2021/03/06 04:36:11;;;;;;;20.08;16.42;;;179.90;1792.00;;;;;;5034477;28;20018;-78
2021/03/06 04:38:36;;;;;;;20.58;17.95;;;180.10;1792.00;;;;;;5034621;28;20083;-69
2021/03/06 04:41:02;;;;;;;24.48;18.05;;;180.10;1766.40;;;;;;5034526;28;20504;-70
2021/03/06 04:43:28;;;;;;;23.20;18.17;;;179.70;1843.20;;;;;;5033638;28;20488;-79
2021/03/06 04:45:54;;;;;;;22.90;19.13;;;179.90;1792.00;;;;;;5033884;28;20040;-71
2021/03/06 04:48:20;;;;;;;21.02;17.40;;;180.00;1792.00;;;;;;5034267;28;20029;-71
2021/03/06 04:50:46;;;;;;;21.05;16.20;;;180.10;1766.40;;;;;;5034308;28;20510;-70
2021/03/06 04:53:12;;;;;;;23.92;18.73;;;204.80;1715.20;;;;;;5034111;28;20025;-72
2021/03/06 04:55:37;;;;;;;24.13;18.17;;;204.80;1740.80;;;;;;5034094;28;20083;-70
2021/03/06 04:58:03;;;;;;;24.05;17.92;;;204.90;1740.80;;;;;;5034234;28;20453;-72
2021/03/06 05:00:29;;;;;;;23.13;17.95;;;179.90;1766.40;;;;;;5033788;28;20017;-71
2021/03/06 05:02:55;;;;;;;22.50;17.65;;;180.00;1766.40;;;;;;5033844;28;20026;-72
2021/03/06 05:05:21;;;;;;;23.63;18.25;;;180.00;1766.40;;;;;;5033843;28;20017;-73
2021/03/06 05:07:46;;;;;;;31.48;22.08;;;180.00;1766.40;;;;;;5033700;28;20504;-72
2021/03/06 05:10:13;;;;;;;27.98;20.83;;;204.80;1715.20;;;;;;5032796;28;20049;-72
2021/03/06 05:12:38;;;;;;;26.40;18.60;;;204.80;1715.20;;;;;;5025817;28;20199;-70
2021/03/06 05:15:06;;;;;;;26.23;18.58;;;179.70;1817.60;;;;;;5033655;28;20113;-71
2021/03/06 05:17:31;;;;;;;27.00;19.20;;;179.60;1817.60;;;;;;5033426;28;20480;-71
2021/03/06 05:19:58;;;;;;;20.67;15.90;;;179.60;1792.00;;;;;;5033564;28;20040;-70
2021/03/06 05:22:24;;;;;;;24.80;19.45;;;179.70;1792.00;;;;;;5033890;28;20036;-71
2021/03/06 05:24:49;;;;;;;29.17;21.02;;;180.00;1740.80;;;;;;5033750;28;20384;-70
2021/03/06 05:27:15;;;;;;;30.48;20.73;;;179.90;1766.40;;;;;;5033487;28;20022;-69
2021/03/06 05:29:41;;;;;;;26.45;18.50;;;180.10;1715.20;;;;;;5033349;28;20025;-70
2021/03/06 05:32:07;;;;;;;24.10;19.77;;;180.00;1740.80;;;;;;5032998;28;20400;-73
2021/03/06 05:34:34;;;;;;;31.52;21.92;;;180.10;1740.80;;;;;;5033460;28;20064;-69
2021/03/06 05:36:59;;;;;;;32.78;21.75;;;179.90;1766.40;;;;;;5033260;28;20022;-70
2021/03/06 05:39:25;;;;;;;31.85;21.50;;;180.00;1766.40;;;;;;5032894;28;20090;-71
2021/03/06 05:41:52;;;;;;;30.45;21.73;;;204.80;1740.80;;;;;;5033287;28;20068;-70
2021/03/06 05:44:18;;;;;;;37.53;25.83;;;180.10;1740.80;;;;;;5033037;28;20044;-71
2021/03/06 05:46:44;;;;;;;30.60;22.27;;;180.10;1740.80;;;;;;5033067;28;20030;-69
2021/03/06 05:49:11;;;;;;;25.55;19.13;;;204.80;1740.80;;;;;;5032963;28;20438;-71
2021/03/06 05:51:38;;;;;;;23.45;18.27;;;204.80;1689.60;;;;;;5032958;28;20022;-72
2021/03/06 05:54:14;;;;;;;21.50;16.75;;;179.90;1766.40;;;;;;5033106;28;20439;-72
2021/03/06 05:56:41;;;;;;;27.08;19.58;;;179.70;1766.40;;;;;;5028481;28;20025;-71
2021/03/06 05:59:11;;;;;;;32.30;24.02;;;179.90;1766.40;;;;;;5033147;28;20032;-72
2021/03/06 06:01:38;;;;;;;27.73;20.42;;;179.80;1766.40;;;;;;5032630;28;20500;-72
2021/03/06 06:04:05;;;;;;;31.77;21.77;;;179.80;1766.40;;;;;;5032573;28;20490;-72
2021/03/06 06:06:31;;;;;;;29.98;19.98;;;179.90;1766.40;;;;;;5032730;28;20022;-71
2021/03/06 06:08:58;;;;;;;24.83;18.40;;;179.80;1766.40;;;;;;5032556;28;20037;-71
2021/03/06 06:11:27;;;;;;;23.00;17.55;;;179.90;1740.80;;;;;;5028933;28;20018;-71
2021/03/06 06:14:03;;;;;;;44.13;26.42;;;179.80;1740.80;;;;;;5032782;28;20030;-71
2021/03/06 06:16:30;;;;;;;39.47;26.80;;;179.70;1766.40;;;;;;5032266;28;20024;-72
2021/03/06 06:18:56;;;;;;;24.60;18.10;;;;;;;;;;5032469;28;20083;-72
2021/03/06 06:21:44;;;;;;;27.33;19.50;;;179.90;1715.20;;;;;;5032804;28;20026;-72
2021/03/06 06:24:14;;;;;;;28.55;19.00;;;179.70;1715.20;;;;;;5032444;28;20026;-71
2021/03/06 06:26:51;;;;;;;33.20;22.42;;;180.00;1689.60;;;;;;5032253;28;20013;-72
2021/03/06 06:29:17;;;;;;;33.47;22.52;;;179.80;1715.20;;;;;;5032469;28;20042;-72
2021/03/06 06:31:55;;;;;;;35.78;25.15;;;179.90;1715.20;;;;;;5032158;28;20025;-72
2021/03/06 06:34:21;;;;;;;40.33;28.00;;;179.70;1740.80;;;;;;5032035;28;20049;-72
2021/03/06 06:36:46;;;;;;;35.55;25.60;;;179.80;2150.40;;;;;;5032359;28;20354;-72
2021/03/06 06:39:12;;;;;;;38.63;24.60;;;180.00;1689.60;;;;;;5032036;28;20384;-72
2021/03/06 06:41:55;;;;;;;33.50;24.48;;;180.00;2252.80;;;;;;5032475;28;20091;-72
2021/03/06 06:44:22;;;;;;;29.48;20.20;;;180.00;1715.20;;;;;;5031906;28;20365;-72
2021/03/06 06:46:52;;;;;;;33.03;23.23;;;179.90;1715.20;;;;;;5032156;28;20037;-72
2021/03/06 06:49:19;;;;;;;27.35;19.70;;;204.80;1689.60;;;;;;5032013;28;20033;-70
2021/03/06 06:51:58;;;;;;;29.30;20.88;;;180.00;1689.60;;;;;;5032113;28;20024;-73
2021/03/06 06:54:24;;;;;;;33.00;22.58;;;180.10;1664.00;;;;;;5031854;28;20039;-69
2021/03/06 06:56:49;;;;;;;32.40;22.77;;;204.80;1664.00;;;;;;5032271;28;20056;-69
2021/03/06 06:59:17;;;;;;;32.95;22.88;;;179.90;1689.60;;;;;;5031934;28;20451;-69
2021/03/06 07:01:42;;;;;;;40.55;24.63;;;180.00;1664.00;;;;;;5032308;28;20030;-75
2021/03/06 07:04:10;;;;;;;47.35;28.77;;;179.80;1638.40;;;;;;5031987;28;20208;-70
2021/03/06 07:06:37;;;;;;;56.42;30.20;;;180.10;1664.00;;;;;;5032266;28;20116;-74
2021/03/06 07:09:15;;;;;;;52.92;28.60;;;180.00;1612.80;;;;;;5035885;28;20430;-70
2021/03/06 07:11:42;;;;;;;42.42;27.30;;;180.00;1638.40;;;;;;5035968;28;20037;-69
2021/03/06 07:14:08;;;;;;;35.30;21.13;;;180.10;1612.80;;;;;;5036304;28;20103;-70
2021/03/06 07:16:56;;;;;;;43.20;25.90;;;204.90;1561.60;;;;;;5035714;28;20032;-71
2021/03/06 07:19:23;;;;;;;41.80;26.63;;;204.80;1587.20;;;;;;5035939;28;20026;-73
2021/03/06 07:21:52;;;;;;;41.80;25.67;;;204.80;1587.20;;;;;;5035593;28;20021;-70
2021/03/06 07:24:18;;;;;;;41.45;23.25;;;205.00;1561.60;;;;;;5036036;28;20025;-71
2021/03/06 07:26:44;;;;;;;38.08;22.15;;;180.10;1561.60;;;;;;5035671;28;20028;-70
2021/03/06 07:29:10;;;;;;;42.95;24.85;;;180.10;1561.60;;;;;;5035830;28;20044;-71
2021/03/06 07:31:38;;;;;;;35.72;23.20;;;180.10;1561.60;;;;;;5035454;28;20391;-72
2021/03/06 07:34:08;;;;;;;45.90;27.85;;;204.80;1536.00;;;;;;5035288;28;20050;-70
2021/03/06 07:36:37;;;;;;;37.85;23.67;;;204.90;1510.40;;;;;;5035800;28;20025;-72
2021/03/06 07:39:04;;;;;;;43.95;28.73;;;204.90;1510.40;;;;;;5035122;28;20120;-72
2021/03/06 07:41:37;;;;;;;36.17;22.67;;;205.00;1536.00;;;;;;5035568;28;20018;-73
2021/03/06 07:44:04;;;;;;;31.67;21.58;;;204.90;1536.00;;;;;;5035594;28;20033;-71
2021/03/06 07:46:30;;;;;;;43.85;27.27;;;204.80;1536.00;;;;;;5035249;28;20021;-73
2021/03/06 07:48:59;;;;;;;41.25;25.98;;;204.90;1536.00;;;;;;5035253;28;20041;-71
2021/03/06 07:51:26;;;;;;;43.13;26.33;;;205.10;1536.00;;;;;;5035060;28;20104;-71
2021/03/06 07:53:52;;;;;;;28.38;18.83;;;205.20;1561.60;;;;;;5035214;28;20494;-72
2021/03/06 07:56:18;;;;;;;40.08;24.15;;;205.00;1561.60;;;;;;5035389;28;20030;-72
2021/03/06 07:58:51;;;;;;;30.10;21.45;;;205.00;1536.00;;;;;;5028511;28;20037;-71
2021/03/06 08:01:31;;;;;;;37.90;23.48;;;205.00;1536.00;;;;;;5016915;28;20030;-72
2021/03/06 08:03:58;;;;;;;36.63;23.42;;;204.80;1536.00;;;;;;5007403;28;20029;-70
2021/03/06 08:06:25;;;;;;;31.02;23.05;;;204.90;1561.60;;;;;;5028226;28;20018;-71
2021/03/06 08:08:57;;;;;;;34.88;23.13;;;204.90;1536.00;;;;;;5023210;28;20400;-73
2021/03/06 08:11:26;;;;;;;31.77;23.25;;;205.10;1536.00;;;;;;5022002;28;20013;-72
2021/03/06 08:13:54;;;;;;;29.35;21.25;;;205.20;1536.00;;;;;;5016974;28;20061;-70
2021/03/06 08:16:20;;;;;;;31.23;21.75;;;205.20;1510.40;;;;;;5019076;28;20467;-73
2021/03/06 08:18:46;;;;;;;28.33;20.33;;;205.30;1510.40;;;;;;5016665;28;20113;-71
2021/03/06 08:21:32;;;;;;;22.90;17.33;;;205.30;1484.80;;;;;;5014815;28;20392;-74
2021/03/06 08:24:15;;;;;;;22.23;17.42;;;205.00;1510.40;;;;;;5023905;28;20013;-72
2021/03/06 08:26:54;;;;;;;26.88;20.08;;;204.90;1510.40;;;;;;5034105;28;20026;-72
2021/03/06 08:29:20;;;;;;;37.42;24.65;;;205.10;1510.40;;;;;;5034246;28;20372;-72
2021/03/06 08:31:46;;;;;;;33.13;22.13;;;205.20;1484.80;;;;;;5034055;28;20025;-72
2021/03/06 08:34:33;;;;;;;32.60;22.63;;;205.30;1484.80;;;;;;5034321;28;20056;-72
2021/03/06 08:37:19;;;;;;;33.05;24.48;;;205.20;1484.80;;;;;;5032874;28;20483;-71
2021/03/06 08:39:47;;;;;;;35.80;23.85;;;205.40;1484.80;;;;;;5034131;28;20029;-72
2021/03/06 08:42:14;;;;;;;28.92;17.77;;;205.40;1484.80;;;;;;5033967;28;20423;-71
2021/03/06 08:44:40;;;;;;;33.17;21.65;;;205.20;1459.20;;;;;;5034414;28;20045;-72
2021/03/06 08:47:07;;;;;;;31.70;22.67;;;205.20;1484.80;;;;;;5033911;28;20021;-71
2021/03/06 08:49:33;;;;;;;28.30;19.67;;;205.20;1459.20;;;;;;5033680;28;20026;-72
2021/03/06 08:51:59;;;;;;;32.00;22.27;;;205.20;1433.60;;;;;;5033830;28;20526;-72
2021/03/06 08:54:25;;;;;;;27.08;18.90;;;205.20;1459.20;;;;;;5033547;28;20026;-71
2021/03/06 08:56:52;;;;;;;29.92;18.85;;;204.90;1459.20;;;;;;5033974;28;20488;-72
2021/03/06 08:59:18;;;;;;;27.08;19.08;;;205.00;1459.20;;;;;;5033849;28;20408;-72
2021/03/06 09:01:45;;;;;;;27.70;19.35;;;205.10;1433.60;;;;;;5033617;28;20111;-72
2021/03/06 09:04:12;;;;;;;24.27;17.52;;;205.00;1459.20;;;;;;5033700;28;20053;-71
2021/03/06 09:06:41;;;;;;;131.63;117.53;;;205.00;1433.60;;;;;;5034025;28;20022;-70
2021/03/06 09:09:10;;;;;;;34.05;22.60;;;205.00;1459.20;;;;;;5015808;28;20079;-71
2021/03/06 09:11:59;;;;;;;32.83;20.02;;;205.20;1433.60;;;;;;5033456;28;20076;-72
2021/03/06 09:14:25;;;;;;;35.35;23.17;;;204.80;1408.00;;;;;;5015981;28;20435;-72
2021/03/06 09:16:51;;;;;;;28.10;18.13;;;204.90;1408.00;;;;;;5033224;28;20468;-72
2021/03/06 09:19:24;;;;;;;33.35;21.58;;;205.20;1382.40;;;;;;5031840;28;20037;-71
2021/03/06 09:22:00;;;;;;;31.15;19.80;;;205.30;1382.40;;;;;;5033416;28;20475;-71
2021/03/06 09:24:45;;;;;;;22.88;16.83;;;204.80;1408.00;;;;;;5033368;28;20025;-72
2021/03/06 09:27:11;;;;;;;23.50;17.25;;;204.80;1408.00;;;;;;5033158;28;20052;-72
2021/03/06 09:29:37;;;;;;;28.63;17.88;;;205.00;1382.40;;;;;;5033237;28;20025;-72
2021/03/06 09:32:04;;;;;;;25.00;16.83;;;204.80;1433.60;;;;;;5032888;28;20024;-72
2021/03/06 09:34:30;;;;;;;34.13;18.08;;;204.90;1408.00;;;;;;5033573;28;20017;-71
2021/03/06 09:36:56;;;;;;;38.88;22.65;;;205.10;1408.00;;;;;;5033530;28;20032;-72
2021/03/06 09:39:23;;;;;;;28.17;17.92;;;205.20;1382.40;;;;;;5021591;28;20491;-71
2021/03/06 09:41:49;;;;;;;33.55;21.67;;;205.10;1356.80;;;;;;5033287;28;20068;-71
2021/03/06 09:44:16;;;;;;;41.15;22.73;;;205.50;1356.80;;;;;;5033386;28;20033;-71
2021/03/06 09:46:43;;;;;;;26.85;18.58;;;205.60;1356.80;;;;;;5032901;28;20014;-72
2021/03/06 09:49:11;;;;;;;30.25;18.65;;;205.70;1331.20;;;;;;5032674;28;20064;-72
2021/03/06 09:51:43;;;;;;;41.72;25.30;;;230.40;1331.20;;;;;;5033015;28;20022;-71
2021/03/06 09:54:09;;;;;;;;;;;230.80;1331.20;;;;;;5033340;28;20121;-73
2021/03/06 09:56:51;;;;;;;37.45;22.65;;;230.70;1280.00;;;;;;5032743;28;20347;-72
2021/03/06 09:59:18;;;;;;;36.42;21.90;;;230.70;1280.00;;;;;;5032372;28;20022;-72
2021/03/06 10:01:44;;;;;;;26.30;17.70;;;230.80;1280.00;;;;;;5032622;28;20128;-71
2021/03/06 10:04:11;;;;;;;36.63;20.73;;;230.60;1280.00;;;;;;5032707;28;20013;-72
2021/03/06 10:06:39;;;;;;;41.70;25.02;;;230.90;1280.00;;;;;;5032719;28;20116;-72
2021/03/06 10:09:08;;;;;;;18.23;13.57;;;231.10;1280.00;;;;;;5032144;28;20049;-72
2021/03/06 10:11:36;;;;;;;29.80;20.45;;;230.60;1254.40;;;;;;5032264;28;20507;-72
2021/03/06 10:14:03;;;;;;;29.75;19.17;;;231.10;1280.00;;;;;;5032804;28;20025;-72
2021/03/06 10:16:41;;;;;;;29.45;20.95;;;231.30;1254.40;;;;;;5032504;28;20037;-71
2021/03/06 10:19:06;;;;;;;24.27;14.50;;;230.90;1280.00;;;;;;5032324;28;20033;-70
2021/03/06 10:21:32;;;;;;;30.38;19.58;;;230.80;1254.40;;;;;;5032310;28;20483;-71
2021/03/06 10:24:03;;;;;;;31.35;17.80;;;231.10;1280.00;;;;;;5032457;28;20033;-71
2021/03/06 10:26:30;;;;;;;43.00;19.88;;;256.00;1254.40;;;;;;5032588;28;20017;-72
2021/03/06 10:28:58;;;;;;;25.00;15.65;;;256.80;1203.20;;;;;;5018454;28;20048;-72
2021/03/06 10:31:36;;;;;;;34.13;22.40;;;256.80;1152.00;;;;;;5032751;28;20018;-72
2021/03/06 10:34:18;;;;;;;59.75;34.20;;;281.80;1126.40;;;;;;5031801;28;20052;-73
2021/03/06 10:36:45;;;;;;;28.25;17.42;;;282.00;1100.80;;;;;;5032287;28;20365;-72
2021/03/06 10:39:29;;;;;;;23.85;13.68;;;282.10;1100.80;;;;;;5031556;28;20025;-73
2021/03/06 10:41:58;;;;;;;26.00;14.50;;;282.10;1100.80;;;;;;5031433;28;20071;-72
2021/03/06 10:44:24;;;;;;;26.65;16.30;;;282.00;1100.80;;;;;;5031878;28;20038;-72
2021/03/06 10:47:01;;;;;;;20.75;14.65;;;281.90;1100.80;;;;;;5032040;28;20026;-72
2021/03/06 10:49:47;;;;;;;23.95;14.57;;;281.60;1100.80;;;;;;5031803;28;20029;-72
2021/03/06 10:52:27;;;;;;;22.17;13.68;;;281.60;1126.40;;;;;;5032242;28;20091;-72
2021/03/06 10:54:55;;;;;;;25.88;13.50;;;282.20;1075.20;;;;;;5031862;28;20021;-73
2021/03/06 10:57:21;;;;;;;17.75;11.60;;;307.20;1075.20;;;;;;5031841;28;20100;-72
2021/03/06 10:59:47;;;;;;;22.50;13.20;;;282.30;1024.00;;;;;;5031707;28;20108;-72
2021/03/06 11:02:23;;;;;;;22.10;16.52;;;282.50;1049.60;;;;;;5031772;28;20079;-72
2021/03/06 11:04:48;;;;;;;299.63;155.20;;;307.70;1075.20;;;;;;5031659;28;20037;-72
2021/03/06 11:07:14;;;;;;;157.63;100.80;;;307.70;1049.60;;;;;;5031801;28;20029;-72
2021/03/06 11:09:40;;;;;;;49.83;32.58;;;332.80;998.40;;;;;;5031507;28;20503;-72
2021/03/06 11:12:19;;;;;;;196.77;124.93;;;332.80;972.80;;;;;;5031873;28;20056;-72
2021/03/06 11:14:45;;;;;;;287.27;185.80;;;333.40;972.80;;;;;;5032060;28;20038;-72
2021/03/06 11:17:15;;;;;;;521.75;360.23;;;358.90;921.60;;;;;;5031249;28;20025;-72
2021/03/06 11:19:42;;;;;;;135.57;114.68;;;384.60;819.20;;;;;;5031580;28;20419;-72
2021/03/06 11:22:09;;;;;;;39.85;31.92;;;384.70;819.20;;;;;;5031766;28;20021;-73
2021/03/06 11:24:35;;;;;;;34.55;29.30;;;359.20;870.40;;;;;;5031731;28;20108;-72
2021/03/06 11:27:01;;;;;;;34.58;29.88;;;384.30;844.80;;;;;;5031704;28;20017;-73
2021/03/06 11:29:28;;;;;;;36.63;30.42;;;358.90;844.80;;;;;;5032036;28;20484;-72
2021/03/06 11:31:55;;;;;;;31.77;25.48;;;358.90;870.40;;;;;;5031401;28;20444;-71
2021/03/06 11:34:24;;;;;;;26.92;16.25;;;384.50;793.60;;;;;;5031448;28;20534;-72
2021/03/06 11:36:49;;;;;;;57.35;40.08;;;359.20;844.80;;;;;;5031656;28;20033;-75
2021/03/06 11:39:15;;;;;;;20.08;15.25;;;358.90;896.00;;;;;;5031180;28;20076;-71
2021/03/06 11:41:41;;;;;;;32.65;25.02;;;384.80;793.60;;;;;;5031428;28;20029;-74
2021/03/06 11:44:08;;;;;;;28.33;21.58;;;384.30;844.80;;;;;;5031621;28;20037;-72
2021/03/06 11:46:34;;;;;;;41.38;36.20;;;359.30;844.80;;;;;;5031595;28;20026;-72
2021/03/06 11:49:00;;;;;;;32.63;25.50;;;384.50;819.20;;;;;;5031469;28;20041;-72
2021/03/06 11:51:26;;;;;;;28.48;22.25;;;384.10;819.20;;;;;;5031244;28;20408;-72
2021/03/06 11:53:51;;;;;;;21.33;17.35;;;359.00;844.80;;;;;;5078877;23;20060;-65
2021/03/06 11:56:17;;;;;;;28.23;20.13;;;384.50;793.60;;;;;;5013250;28;20021;-65
2021/03/06 11:58:43;;;;;;;18.92;14.60;;;435.80;691.20;;;;;;5015615;28;20072;-67
2021/03/06 12:01:09;;;;;;;33.35;27.02;;;486.40;665.60;;;;;;5015292;28;20424;-63
2021/03/06 12:03:34;;;;;;;25.13;20.38;;;461.20;691.20;;;;;;5011276;28;20093;-61
2021/03/06 12:06:00;;;;;;;72.68;57.00;;;410.30;768.00;;;;;;4993231;28;20043;-63
2021/03/06 12:08:26;;;;;;;20.40;16.77;;;384.60;793.60;;;;;;5014978;28;20472;-67